Time;durP1;ratioP1;P1;durP2;ratioP2;P2;SDS_P1;SDS_P2;PMS_P1;PMS_P2;Temp;Humidity;BMP_temperature;BMP_pressure;BME280_temperature;BME280_humidity;BME280_pressure;Samples;Min_cycle;Max_cycle;Signal;HPM_P1;HPM_P2
2024/02/21 00:01:28;;;;;;;71.20;29.80;;;;;;;8.76;54.63;100379.00;108168;1251;68849;-66
2024/02/21 00:03:56;;;;;;;96.70;41.10;;;;;;;8.64;54.84;100375.61;108211;1254;71251;-66
2024/02/21 00:06:23;;;;;;;93.20;40.20;;;;;;;8.86;54.52;100378.03;108047;1254;60575;-67
2024/02/21 00:08:51;;;;;;;94.80;41.20;;;;;;;8.86;54.50;100371.56;108061;1254;61152;-64
2024/02/21 00:11:18;;;;;;;95.00;40.80;;;;;;;8.86;54.64;100373.85;108104;1254;72569;-67
2024/02/21 00:13:46;;;;;;;82.50;36.70;;;;;;;8.93;54.60;100373.83;108070;1254;69724;-65
2024/02/21 00:16:15;;;;;;;95.10;44.40;;;;;;;8.92;54.45;100367.02;108139;1258;70737;-66
2024/02/21 00:18:43;;;;;;;97.90;40.90;;;;;;;8.92;54.46;100365.27;107929;1254;60818;-66
2024/02/21 00:21:17;;;;;;;94.10;41.70;;;;;;;8.79;55.03;100364.92;108033;1254;60374;-67
2024/02/21 00:23:45;;;;;;;85.70;37.10;;;;;;;8.91;54.55;100363.57;108008;1254;73860;-67
2024/02/21 00:26:14;;;;;;;83.20;36.50;;;;;;;8.98;54.52;100361.62;107988;1254;69916;-66
2024/02/21 00:28:42;;;;;;;88.10;38.70;;;;;;;9.00;54.38;100357.18;108281;1254;72519;-67
2024/02/21 00:31:10;;;;;;;95.80;42.50;;;;;;;9.22;53.82;100355.89;108123;1254;60406;-67
2024/02/21 00:33:38;;;;;;;85.20;38.80;;;;;;;9.31;53.62;100354.42;108017;1254;60536;-65
2024/02/21 00:36:05;;;;;;;84.60;38.90;;;;;;;9.24;53.77;100356.38;108065;1253;73788;-67
2024/02/21 00:38:33;;;;;;;83.50;34.40;;;;;;;9.19;53.89;100353.35;107898;1254;70005;-67
2024/02/21 00:41:00;;;;;;;80.00;36.10;;;;;;;9.04;54.43;100349.73;108028;1254;72013;-66
2024/02/21 00:43:28;;;;;;;81.00;37.60;;;;;;;9.47;53.26;100350.11;108064;1254;60452;-67
2024/02/21 00:45:56;;;;;;;81.60;35.30;;;;;;;9.48;53.24;100346.05;108071;1254;60389;-66
2024/02/21 00:48:23;;;;;;;76.00;30.20;;;;;;;9.46;53.11;100343.66;108122;1254;73834;-66
2024/02/21 00:50:51;;;;;;;90.30;37.60;;;;;;;9.63;52.76;100340.69;108139;1254;70285;-67
2024/02/21 00:53:19;;;;;;;83.90;37.10;;;;;;;9.50;53.11;100333.90;108052;1259;72706;-64
2024/02/21 00:55:47;;;;;;;83.00;38.30;;;;;;;9.32;53.55;100330.73;108044;1254;60709;-64
2024/02/21 00:58:14;;;;;;;83.40;37.60;;;;;;;9.13;54.01;100325.66;108047;1254;60651;-67
2024/02/21 01:00:42;;;;;;;82.70;37.80;;;;;;;9.12;54.16;100325.52;108309;1254;72107;-65
2024/02/21 01:03:09;;;;;;;84.50;36.90;;;;;;;9.15;54.04;100325.27;108222;1253;70300;-65
2024/02/21 01:05:37;;;;;;;81.70;37.80;;;;;;;9.16;54.01;100323.13;108133;1254;71484;-66
2024/02/21 01:08:05;;;;;;;87.50;38.40;;;;;;;9.41;53.39;100320.99;108154;1253;60928;-67
2024/02/21 01:10:33;;;;;;;84.30;38.10;;;;;;;9.28;53.70;100322.61;108246;1253;60325;-66
2024/02/21 01:13:00;;;;;;;87.10;39.20;;;;;;;9.12;54.16;100318.34;108171;1253;73839;-64
2024/02/21 01:15:28;;;;;;;90.20;42.50;;;;;;;9.18;54.04;100317.45;108116;1254;69340;-65
2024/02/21 01:17:55;;;;;;;87.10;38.40;;;;;;;9.04;54.48;100314.35;108095;1254;72440;-66
2024/02/21 01:20:23;;;;;;;87.70;40.00;;;;;;;9.17;54.23;100310.11;107972;1254;137680;-63
2024/02/21 01:23:46;;;;;;;92.80;41.10;;;;;;;8.11;58.14;100307.04;104906;1293;601013;-65
2024/02/21 01:26:15;;;;;;;72.90;34.90;;;;;;;8.83;55.34;100304.94;107312;1267;59568;-63
2024/02/21 01:28:42;;;;;;;83.70;38.40;;;;;;;8.67;55.76;100301.70;107268;1263;58772;-64
2024/02/21 01:31:10;;;;;;;87.20;37.10;;;;;;;8.83;55.48;100302.84;107280;1263;72220;-66
2024/02/21 01:33:38;;;;;;;83.30;37.70;;;;;;;8.89;55.23;100304.42;107337;1265;69955;-62
2024/02/21 01:36:06;;;;;;;92.00;40.10;;;;;;;9.01;55.00;100300.41;107308;1266;72724;-64
2024/02/21 01:38:34;;;;;;;71.80;34.30;;;;;;;9.11;54.80;100302.05;107304;1263;120435;-64
2024/02/21 01:41:02;;;;;;;77.00;35.80;;;;;;;8.82;55.43;100301.64;107412;1263;60007;-66
2024/02/21 01:43:30;;;;;;;81.30;38.10;;;;;;;8.99;55.11;100298.19;107415;1263;71357;-67
2024/02/21 01:45:58;;;;;;;70.00;32.60;;;;;;;8.93;55.35;100298.36;107457;1267;70467;-66
2024/02/21 01:48:25;;;;;;;77.60;36.20;;;;;;;8.86;55.44;100294.35;107380;1264;71596;-67
2024/02/21 01:50:54;;;;;;;83.20;38.00;;;;;;;8.90;55.48;100297.59;107407;1263;61038;-66
2024/02/21 01:53:34;;;;;;;80.70;36.70;;;;;;;8.74;55.84;100297.67;107407;1268;59603;-66
2024/02/21 01:56:02;;;;;;;86.10;39.20;;;;;;;8.78;55.84;100297.55;107397;1263;71914;-66
2024/02/21 01:58:30;;;;;;;78.00;35.60;;;;;;;8.83;55.75;100298.82;107452;1263;70638;-64
2024/02/21 02:00:57;;;;;;;84.00;37.30;;;;;;;8.77;55.98;100298.63;107386;1265;71469;-66
2024/02/21 02:03:26;;;;;;;76.90;34.90;;;;;;;8.79;55.91;100299.45;107331;1263;60662;-66
2024/02/21 02:05:54;;;;;;;68.50;34.30;;;;;;;8.69;56.15;100297.79;107425;1263;59421;-66
2024/02/21 02:08:22;;;;;;;85.50;38.00;;;;;;;8.70;56.16;100293.05;107323;1263;73106;-66
2024/02/21 02:10:50;;;;;;;78.40;35.90;;;;;;;8.69;56.16;100292.53;107294;1268;69031;-66
2024/02/21 02:13:17;;;;;;;86.70;38.80;;;;;;;8.52;56.74;100287.38;107303;1263;71720;-67
2024/02/21 02:15:46;;;;;;;80.20;35.30;;;;;;;8.69;56.18;100286.06;107285;1266;59991;-66
2024/02/21 02:18:14;;;;;;;76.00;34.90;;;;;;;8.71;56.44;100287.77;107289;1268;59613;-66
2024/02/21 02:20:42;;;;;;;87.20;36.10;;;;;;;8.82;55.97;100291.69;107301;1263;73094;-66
2024/02/21 02:23:25;;;;;;;81.50;38.50;;;;;;;8.81;55.94;100290.46;107175;1263;68831;-64
2024/02/21 02:25:53;;;;;;;70.80;32.60;;;;;;;8.80;56.07;100291.90;107276;1266;71983;-66
2024/02/21 02:28:21;;;;;;;85.80;37.70;;;;;;;8.81;56.09;100293.77;107296;1264;59657;-66
2024/02/21 02:30:49;;;;;;;78.60;36.10;;;;;;;8.71;56.38;100295.64;107348;1263;59624;-65
2024/02/21 02:33:19;;;;;;;83.80;37.60;;;;;;;8.81;56.21;100294.13;107303;1263;71782;-66
2024/02/21 02:35:47;;;;;;;92.40;40.00;;;;;;;8.81;56.13;100298.85;107339;1263;70416;-68
2024/02/21 02:38:15;;;;;;;74.70;34.10;;;;;;;8.86;56.19;100299.42;107308;1263;71458;-66
2024/02/21 02:40:42;;;;;;;78.50;36.90;;;;;;;8.80;56.37;100301.88;107744;1256;59642;-66
2024/02/21 02:43:10;;;;;;;81.50;37.20;;;;;;;8.74;56.50;100301.67;107752;1256;59494;-68
2024/02/21 02:45:37;;;;;;;78.70;37.10;;;;;;;8.74;56.84;100302.73;107752;1256;73050;-67
2024/02/21 02:48:06;;;;;;;86.10;37.80;;;;;;;8.84;56.49;100300.89;107689;1256;70220;-66
2024/02/21 02:50:33;;;;;;;72.20;36.20;;;;;;;8.82;56.51;100304.96;107703;1259;70793;-66
2024/02/21 02:53:01;;;;;;;79.00;36.00;;;;;;;8.85;56.59;100305.06;107711;1256;61474;-66
2024/02/21 02:55:28;;;;;;;73.80;35.40;;;;;;;8.90;56.35;100303.70;107702;1257;59173;-67
2024/02/21 02:57:56;;;;;;;78.30;35.50;;;;;;;8.87;56.67;100311.31;107738;1256;72317;-67
2024/02/21 03:00:24;;;;;;;82.00;38.50;;;;;;;8.93;56.54;100310.27;107666;1256;69439;-67
2024/02/21 03:02:51;;;;;;;86.00;35.10;;;;;;;8.80;56.74;100309.20;107828;1261;72409;-67
2024/02/21 03:05:20;;;;;;;80.70;35.50;;;;;;;8.79;56.87;100311.69;108155;1253;61002;-67
2024/02/21 03:07:49;;;;;;;92.60;40.10;;;;;;;8.92;56.69;100310.46;108211;1257;59829;-67
2024/02/21 03:10:17;;;;;;;80.30;35.30;;;;;;;8.93;56.61;100310.45;108152;1252;71782;-66
2024/02/21 03:12:47;;;;;;;77.80;35.10;;;;;;;8.87;56.90;100313.94;108107;1253;68620;-66
2024/02/21 03:15:15;;;;;;;88.20;38.50;;;;;;;8.82;57.09;100314.59;108132;1253;73282;-67
2024/02/21 03:17:42;;;;;;;89.30;37.70;;;;;;;9.03;56.49;100312.61;108110;1253;60888;-67
2024/02/21 03:20:11;;;;;;;89.40;38.70;;;;;;;9.12;56.47;100309.76;108127;1252;59377;-66
2024/02/21 03:22:40;;;;;;;95.30;41.00;;;;;;;9.11;56.59;100310.83;107972;1257;73055;-66
2024/02/21 03:25:09;;;;;;;83.10;37.10;;;;;;;8.97;57.01;100309.46;108165;1253;69986;-66
2024/02/21 03:27:37;;;;;;;97.80;41.70;;;;;;;9.04;56.91;100316.08;107957;1253;72470;-67
2024/02/21 03:30:06;;;;;;;73.50;34.60;;;;;;;8.98;57.02;100318.19;108045;1254;59618;-67
2024/02/21 03:32:34;;;;;;;97.50;40.40;;;;;;;8.98;57.23;100319.06;108073;1253;60036;-68
2024/02/21 03:35:01;;;;;;;92.40;41.60;;;;;;;8.98;57.19;100324.67;108193;1251;71788;-66
2024/02/21 03:37:29;;;;;;;80.70;36.70;;;;;;;9.08;57.11;100326.52;108189;1251;68910;-68
2024/02/21 03:39:56;;;;;;;88.70;39.50;;;;;;;9.00;57.49;100325.50;108199;1256;72693;-66
2024/02/21 03:42:25;;;;;;;84.50;40.70;;;;;;;8.96;57.58;100330.84;108194;1251;59553;-66
2024/02/21 03:44:53;;;;;;;82.70;37.20;;;;;;;9.03;57.49;100330.65;108212;1252;59537;-66
2024/02/21 03:47:21;;;;;;;86.00;38.70;;;;;;;9.09;57.25;100327.88;108240;1251;72163;-67
2024/02/21 03:49:48;;;;;;;82.00;36.30;;;;;;;9.19;57.20;100330.91;108268;1251;69994;-67
2024/02/21 03:52:16;;;;;;;92.50;42.10;;;;;;;9.28;56.99;100335.95;108252;1254;72664;-67
2024/02/21 03:54:44;;;;;;;84.20;38.90;;;;;;;9.40;56.71;100335.59;108213;1251;59653;-67
2024/02/21 03:57:12;;;;;;;76.50;35.10;;;;;;;9.40;56.78;100332.44;108250;1251;60037;-66
2024/02/21 03:59:40;;;;;;;86.70;38.20;;;;;;;9.40;56.80;100329.98;108226;1251;71710;-66
2024/02/21 04:02:11;;;;;;;72.50;34.30;;;;;;;9.52;56.73;100327.70;108218;1251;68713;-66
2024/02/21 04:04:43;;;;;;;85.30;37.70;;;;;;;9.39;57.11;100327.20;108220;1255;71454;-68
2024/02/21 04:07:11;;;;;;;85.20;40.00;;;;;;;9.47;56.81;100330.66;108187;1251;60819;-65
2024/02/21 04:09:39;;;;;;;73.70;34.60;;;;;;;9.48;56.68;100334.48;108215;1251;59256;-66
2024/02/21 04:12:08;;;;;;;88.50;38.70;;;;;;;9.52;56.64;100334.20;108103;1251;73015;-66
2024/02/21 04:14:35;;;;;;;86.70;39.70;;;;;;;9.40;56.92;100335.73;108246;1251;69974;-66
2024/02/21 04:17:05;;;;;;;81.30;36.80;;;;;;;9.38;56.95;100333.88;108165;1251;71632;-67
2024/02/21 04:19:33;;;;;;;84.80;40.60;;;;;;;9.34;57.24;100335.21;108203;1251;59726;-67
2024/02/21 04:22:01;;;;;;;75.80;34.20;;;;;;;9.20;57.51;100334.94;108272;1251;60027;-65
2024/02/21 04:24:28;;;;;;;79.60;38.20;;;;;;;9.35;57.33;100340.27;108319;1251;73053;-66
2024/02/21 04:26:56;;;;;;;88.90;40.10;;;;;;;9.44;57.08;100343.69;108266;1256;70304;-65
2024/02/21 04:29:23;;;;;;;67.90;33.60;;;;;;;9.48;57.03;100342.02;108248;1251;72691;-67
2024/02/21 04:31:51;;;;;;;90.30;40.30;;;;;;;9.51;56.96;100340.70;108278;1251;59627;-66
2024/02/21 04:34:19;;;;;;;83.20;38.60;;;;;;;9.55;57.00;100341.11;108201;1253;59597;-67
2024/02/21 04:36:47;;;;;;;66.00;31.90;;;;;;;9.61;56.87;100338.83;108134;1254;72965;-64
2024/02/21 04:39:14;;;;;;;81.20;38.50;;;;;;;9.65;56.70;100340.46;108036;1253;70173;-67
2024/02/21 04:41:42;;;;;;;72.70;34.30;;;;;;;9.62;56.77;100343.88;108177;1253;71355;-67
2024/02/21 04:44:09;;;;;;;77.20;36.90;;;;;;;9.66;56.72;100347.43;108003;1253;60902;-67
2024/02/21 04:46:36;;;;;;;82.40;38.70;;;;;;;9.73;56.51;100345.64;108115;1253;59430;-67
2024/02/21 04:49:04;;;;;;;64.40;28.50;;;;;;;9.78;56.41;100351.27;108115;1253;72161;-66
2024/02/21 04:51:32;;;;;;;82.50;40.40;;;;;;;9.84;56.23;100349.70;108106;1259;68717;-65
2024/02/21 04:54:01;;;;;;;74.10;34.40;;;;;;;9.81;56.30;100353.81;108061;1253;72493;-65
2024/02/21 04:56:29;;;;;;;70.30;33.90;;;;;;;9.89;56.09;100354.80;108054;1256;60095;-67
2024/02/21 04:58:57;;;;;;;85.40;39.50;;;;;;;9.80;56.17;100355.25;108049;1253;59501;-66
2024/02/21 05:01:24;;;;;;;67.70;30.90;;;;;;;9.77;56.38;100352.02;107969;1252;73054;-66
2024/02/21 05:03:52;;;;;;;77.10;36.80;;;;;;;9.90;56.01;100354.42;108168;1257;70098;-67
2024/02/21 05:06:19;;;;;;;72.30;35.90;;;;;;;9.85;55.98;100357.02;108104;1254;71723;-67
2024/02/21 05:08:47;;;;;;;69.20;34.60;;;;;;;9.88;55.96;100360.44;108082;1255;59498;-66
2024/02/21 05:11:15;;;;;;;76.70;37.30;;;;;;;9.96;55.67;100361.10;108069;1253;59520;-66
2024/02/21 05:13:43;;;;;;;76.10;36.40;;;;;;;9.92;55.62;100360.34;108023;1254;73117;-66
2024/02/21 05:16:10;;;;;;;79.90;37.60;;;;;;;9.96;55.64;100361.80;108081;1253;70258;-67
2024/02/21 05:18:37;;;;;;;82.30;39.40;;;;;;;9.96;55.60;100367.58;108147;1253;72681;-67
2024/02/21 05:21:05;;;;;;;67.20;33.40;;;;;;;9.95;55.65;100367.61;108105;1254;61363;-66
2024/02/21 05:23:33;;;;;;;78.60;37.30;;;;;;;9.91;55.65;100369.69;108059;1254;59517;-67
2024/02/21 05:26:00;;;;;;;59.00;29.60;;;;;;;9.91;55.67;100374.21;108024;1258;73079;-66
2024/02/21 05:28:28;;;;;;;65.40;33.80;;;;;;;9.86;55.80;100372.95;107999;1253;70347;-67
2024/02/21 05:30:55;;;;;;;78.70;37.80;;;;;;;9.91;55.88;100375.29;107967;1259;72477;-67
2024/02/21 05:33:23;;;;;;;75.40;36.00;;;;;;;10.00;55.69;100370.96;108062;1251;60907;-67
2024/02/21 05:35:51;;;;;;;83.90;40.90;;;;;;;10.12;55.40;100370.61;108248;1257;60322;-67
2024/02/21 05:38:19;;;;;;;89.60;42.90;;;;;;;10.09;55.33;100371.75;108109;1250;73166;-67
2024/02/21 05:40:46;;;;;;;72.00;34.50;;;;;;;10.18;55.26;100370.05;108208;1251;69251;-67
2024/02/21 05:43:14;;;;;;;85.60;41.00;;;;;;;10.16;55.34;100375.72;108221;1256;72632;-67
2024/02/21 05:45:41;;;;;;;71.70;33.80;;;;;;;10.26;55.21;100371.04;108185;1251;60904;-67
2024/02/21 05:48:09;;;;;;;87.10;43.20;;;;;;;10.22;55.43;100376.95;108199;1252;60899;-66
2024/02/21 05:50:36;;;;;;;91.00;42.00;;;;;;;10.22;55.52;100376.60;108206;1256;72723;-67
2024/02/21 05:53:04;;;;;;;88.20;41.10;;;;;;;10.33;55.40;100373.64;108208;1251;70154;-66
2024/02/21 05:55:32;;;;;;;84.20;38.70;;;;;;;10.35;55.37;100375.16;108203;1257;71206;-67
2024/02/21 05:57:59;;;;;;;76.20;36.80;;;;;;;10.41;55.26;100374.61;108246;1256;61122;-67
2024/02/21 06:00:27;;;;;;;81.50;38.70;;;;;;;10.32;55.54;100379.82;108210;1252;60320;-66
2024/02/21 06:02:54;;;;;;;84.10;40.90;;;;;;;10.22;55.92;100384.98;108241;1251;71644;-67
2024/02/21 06:05:22;;;;;;;71.50;33.80;;;;;;;10.28;55.83;100392.05;108307;1257;68834;-68
2024/02/21 06:07:49;;;;;;;93.60;41.50;;;;;;;10.34;55.72;100395.20;108189;1257;72705;-66
2024/02/21 06:10:17;;;;;;;75.30;36.00;;;;;;;10.30;55.92;100392.69;108262;1255;60424;-67
2024/02/21 06:12:45;;;;;;;92.90;43.60;;;;;;;10.32;55.86;100393.14;108325;1251;59602;-66
2024/02/21 06:15:12;;;;;;;101.90;44.00;;;;;;;10.23;55.99;100394.27;108210;1252;72738;-67
2024/02/21 06:17:39;;;;;;;93.80;42.70;;;;;;;10.23;55.98;100397.47;108181;1251;69987;-66
2024/02/21 06:20:08;;;;;;;97.40;46.10;;;;;;;10.24;56.10;100393.89;108190;1256;72654;-67
2024/02/21 06:22:36;;;;;;;96.40;45.90;;;;;;;10.22;56.14;100395.54;108303;1254;60558;-68
2024/02/21 06:25:04;;;;;;;97.30;43.50;;;;;;;10.14;56.41;100394.22;108228;1251;60356;-67
2024/02/21 06:27:32;;;;;;;114.30;49.50;;;;;;;10.21;56.38;100391.35;108193;1257;72674;-67
2024/02/21 06:29:59;;;;;;;110.40;49.20;;;;;;;10.20;56.46;100390.86;108206;1251;70827;-67
2024/02/21 06:32:26;;;;;;;115.30;52.90;;;;;;;10.27;56.50;100391.87;108186;1254;71152;-68
2024/02/21 06:34:54;;;;;;;113.70;51.50;;;;;;;10.36;56.54;100392.52;108124;1254;60835;-67
2024/02/21 06:37:22;;;;;;;94.30;47.00;;;;;;;10.32;56.76;100392.65;108080;1253;60418;-66
2024/02/21 06:39:50;;;;;;;117.30;54.40;;;;;;;10.31;57.04;100394.59;108115;1256;72556;-67
2024/02/21 06:42:17;;;;;;;98.30;45.50;;;;;;;10.35;57.24;100393.23;108106;1255;68770;-67
2024/02/21 06:44:45;;;;;;;109.60;50.30;;;;;;;10.31;57.56;100396.36;108053;1253;72629;-66
2024/02/21 06:47:12;;;;;;;112.30;50.00;;;;;;;10.44;57.57;100396.46;108044;1254;60873;-67
2024/02/21 06:49:41;;;;;;;92.40;45.70;;;;;;;10.44;57.73;100401.02;108078;1252;60197;-67
2024/02/21 06:52:08;;;;;;;108.20;51.20;;;;;;;10.53;57.59;100403.00;108147;1253;72765;-66
2024/02/21 06:54:36;;;;;;;107.50;48.70;;;;;;;10.67;57.33;100401.16;108057;1253;69401;-68
2024/02/21 06:57:04;;;;;;;96.80;45.90;;;;;;;10.80;56.79;100400.37;108017;1254;72677;-65
2024/02/21 06:59:31;;;;;;;113.00;55.60;;;;;;;10.70;56.98;100404.41;108144;1254;61030;-68
2024/02/21 07:02:00;;;;;;;102.00;48.10;;;;;;;10.62;57.13;100407.45;108106;1253;60380;-66
2024/02/21 07:04:29;;;;;;;114.60;52.50;;;;;;;10.59;57.10;100412.13;108052;1258;73909;-67
2024/02/21 07:06:57;;;;;;;113.80;53.00;;;;;;;10.59;57.09;100408.98;108085;1257;68943;-65
2024/02/21 07:09:24;;;;;;;96.30;48.20;;;;;;;10.54;57.22;100410.71;108126;1254;72012;-66
2024/02/21 07:11:52;;;;;;;115.40;55.70;;;;;;;10.45;57.37;100413.12;108107;1257;61488;-66
2024/02/21 07:14:20;;;;;;;101.80;48.10;;;;;;;10.44;57.59;100415.95;108173;1252;62081;-66
2024/02/21 07:16:47;;;;;;;102.90;50.50;;;;;;;10.80;56.78;100412.17;108140;1255;73832;-65
2024/02/21 07:19:15;;;;;;;113.80;54.40;;;;;;;10.94;56.52;100407.98;108228;1254;68701;-66
2024/02/21 07:21:42;;;;;;;102.20;48.80;;;;;;;11.01;56.44;100406.31;108134;1253;71434;-66
2024/02/21 07:24:10;;;;;;;119.70;55.10;;;;;;;11.09;56.35;100406.41;108061;1260;60819;-67
2024/02/21 07:26:41;;;;;;;107.60;50.70;;;;;;;11.15;56.47;100414.30;108156;1253;60297;-67
2024/02/21 07:29:09;;;;;;;108.90;52.70;;;;;;;10.98;56.83;100415.40;108032;1254;73804;-65
2024/02/21 07:31:43;;;;;;;116.70;55.90;;;;;;;10.93;57.10;100417.66;108083;1254;68911;-69
2024/02/21 07:34:10;;;;;;;116.00;54.80;;;;;;;11.00;57.25;100417.43;108010;1254;72752;-66
2024/02/21 07:36:38;;;;;;;101.40;49.70;;;;;;;11.23;56.69;100415.60;108062;1254;60354;-68
2024/02/21 07:39:06;;;;;;;102.40;49.30;;;;;;;11.40;56.43;100414.11;108088;1254;61433;-67
2024/02/21 07:41:34;;;;;;;105.50;49.40;;;;;;;11.36;56.57;100416.54;108073;1254;73478;-67
2024/02/21 07:44:03;;;;;;;110.30;50.70;;;;;;;11.40;56.35;100415.17;108031;1254;69665;-66
2024/02/21 07:46:30;;;;;;;98.00;46.90;;;;;;;11.19;56.92;100421.17;108079;1258;73662;-65
2024/02/21 07:48:58;;;;;;;99.90;47.00;;;;;;;11.14;57.11;100428.04;108093;1253;60437;-67
2024/02/21 07:51:29;;;;;;;124.80;56.20;;;;;;;11.15;57.11;100428.35;108034;1254;59825;-67
2024/02/21 07:53:56;;;;;;;115.60;52.80;;;;;;;11.10;57.25;100426.24;108056;1254;74860;-67
2024/02/21 07:56:27;;;;;;;122.70;57.50;;;;;;;11.16;57.05;100432.36;108098;1254;71201;-67
2024/02/21 07:58:54;;;;;;;127.60;58.60;;;;;;;11.53;56.38;100432.61;108055;1253;72704;-68
2024/02/21 08:01:22;;;;;;;128.90;59.60;;;;;;;11.59;56.44;100428.72;108136;1255;59776;-66
2024/02/21 08:03:50;;;;;;;138.40;65.50;;;;;;;11.73;56.28;100431.73;108119;1253;60435;-67
2024/02/21 08:06:17;;;;;;;131.00;60.40;;;;;;;11.74;56.47;100429.21;108089;1254;73984;-67
2024/02/21 08:08:45;;;;;;;128.20;58.60;;;;;;;11.76;56.50;100432.48;108101;1260;70444;-66
2024/02/21 08:11:13;;;;;;;125.90;58.00;;;;;;;11.83;56.23;100430.50;108079;1253;72786;-66
2024/02/21 08:13:41;;;;;;;113.60;54.40;;;;;;;11.60;56.97;100429.72;108088;1254;60525;-67
2024/02/21 08:16:08;;;;;;;104.30;51.50;;;;;;;11.81;56.59;100426.85;108073;1253;62132;-68
2024/02/21 08:18:38;;;;;;;106.10;51.10;;;;;;;11.82;56.53;100426.98;108133;1254;72645;-66
2024/02/21 08:21:06;;;;;;;96.40;46.80;;;;;;;11.91;56.58;100431.05;108139;1254;70523;-67
2024/02/21 08:23:34;;;;;;;114.80;55.60;;;;;;;11.99;56.65;100429.41;108049;1254;73231;-67
2024/02/21 08:26:05;;;;;;;95.00;46.50;;;;;;;11.92;56.97;100428.95;108053;1254;60617;-66
2024/02/21 08:28:32;;;;;;;100.40;50.10;;;;;;;12.01;56.82;100427.91;108087;1253;60330;-67
2024/02/21 08:31:00;;;;;;;118.10;54.90;;;;;;;12.12;56.54;100425.90;108076;1258;73930;-67
2024/02/21 08:33:29;;;;;;;104.70;51.90;;;;;;;12.22;56.47;100430.07;108093;1253;69320;-67
2024/02/21 08:35:57;;;;;;;107.60;52.30;;;;;;;12.33;56.10;100428.59;108221;1254;72748;-66
2024/02/21 08:38:25;;;;;;;113.20;55.40;;;;;;;12.39;55.89;100432.23;108153;1254;63003;-66
2024/02/21 08:40:53;;;;;;;102.50;50.60;;;;;;;12.35;56.06;100430.96;108184;1254;60431;-68
2024/02/21 08:43:21;;;;;;;103.40;52.30;;;;;;;12.35;55.93;100434.31;108055;1260;72600;-68
2024/02/21 08:45:48;;;;;;;85.90;44.00;;;;;;;12.30;55.93;100434.86;108156;1253;68690;-67
2024/02/21 08:48:16;;;;;;;104.70;52.90;;;;;;;12.28;55.85;100433.90;108136;1254;73056;-67
2024/02/21 08:50:46;;;;;;;73.40;37.10;;;;;;;12.28;55.92;100427.02;108181;1257;60421;-67
2024/02/21 08:53:14;;;;;;;94.30;46.70;;;;;;;12.13;56.66;100432.92;108234;1254;61501;-67
2024/02/21 08:55:44;;;;;;;101.20;52.70;;;;;;;12.15;56.60;100433.70;108056;1254;75053;-67
2024/02/21 08:58:12;;;;;;;100.00;47.50;;;;;;;12.01;57.17;100434.75;108191;1254;70236;-67
2024/02/21 09:00:39;;;;;;;95.20;48.80;;;;;;;12.17;56.85;100432.57;108214;1254;72933;-67
2024/02/21 09:03:06;;;;;;;109.80;53.30;;;;;;;12.18;56.81;100433.05;108189;1254;61809;-67
2024/02/21 09:05:34;;;;;;;104.30;50.00;;;;;;;12.31;56.51;100436.09;108224;1255;60680;-67
2024/02/21 09:08:04;;;;;;;109.80;51.70;;;;;;;12.19;56.26;100437.06;108180;1254;73653;-66
2024/02/21 09:10:32;;;;;;;105.60;50.30;;;;;;;12.06;56.53;100436.86;108236;1254;70777;-68
2024/02/21 09:12:59;;;;;;;105.10;50.30;;;;;;;11.97;56.75;100438.08;108148;1253;72760;-68
2024/02/21 09:15:27;;;;;;;114.60;53.90;;;;;;;11.93;56.64;100437.88;108144;1254;60433;-68
2024/02/21 09:17:55;;;;;;;105.70;48.70;;;;;;;11.88;56.95;100438.23;108156;1251;60357;-67
2024/02/21 09:20:22;;;;;;;112.10;52.90;;;;;;;11.91;56.97;100440.56;108154;1257;74217;-67
2024/02/21 09:22:50;;;;;;;110.10;51.60;;;;;;;11.94;56.99;100437.14;108194;1251;70405;-67
2024/02/21 09:25:17;;;;;;;103.20;49.10;;;;;;;11.81;57.45;100439.35;108197;1251;71826;-69
2024/02/21 09:27:45;;;;;;;104.70;49.10;;;;;;;11.85;57.41;100438.70;108173;1251;61058;-68
2024/02/21 09:30:13;;;;;;;98.30;45.40;;;;;;;12.05;57.42;100436.73;108199;1251;60088;-67
2024/02/21 09:32:41;;;;;;;95.80;48.60;;;;;;;12.13;57.21;100435.89;108214;1251;74316;-67
2024/02/21 09:35:08;;;;;;;100.50;49.20;;;;;;;12.19;56.94;100431.94;108104;1254;69214;-67
2024/02/21 09:37:36;;;;;;;91.30;46.80;;;;;;;12.46;56.80;100429.49;108066;1259;73126;-67
2024/02/21 09:40:05;;;;;;;101.40;48.20;;;;;;;12.62;56.31;100428.30;108018;1257;61856;-67
2024/02/21 09:42:42;;;;;;;93.60;44.80;;;;;;;12.62;56.09;100427.60;108031;1254;60362;-67
2024/02/21 09:45:20;;;;;;;94.70;46.70;;;;;;;12.72;56.10;100425.59;107993;1258;73580;-67
2024/02/21 09:47:54;;;;;;;83.60;43.50;;;;;;;12.96;55.91;100423.56;108038;1254;72708;-67
2024/02/21 09:50:21;;;;;;;78.10;39.90;;;;;;;12.96;56.21;100421.82;108054;1254;74953;-68
2024/02/21 09:52:50;;;;;;;81.90;41.70;;;;;;;12.99;55.66;100420.60;107943;1254;63345;-67
2024/02/21 09:55:17;;;;;;;104.30;49.20;;;;;;;13.13;54.90;100417.88;107986;1254;61162;-66
2024/02/21 09:57:45;;;;;;;85.10;42.30;;;;;;;13.14;55.04;100414.67;108121;1258;76159;-65
2024/02/21 10:00:21;;;;;;;88.20;45.30;;;;;;;13.17;54.75;100417.23;108068;1253;70667;-67
2024/02/21 10:02:50;;;;;;;89.40;46.30;;;;;;;13.23;54.71;100415.73;107977;1254;74943;-67
2024/02/21 10:05:18;;;;;;;78.20;41.90;;;;;;;13.26;54.62;100414.89;107978;1254;62294;-66
2024/02/21 10:07:45;;;;;;;85.40;45.20;;;;;;;13.31;53.96;100409.92;107978;1254;62157;-66
2024/02/21 10:10:14;;;;;;;67.80;37.50;;;;;;;13.41;53.81;100411.95;107941;1255;75828;-66
2024/02/21 10:12:51;;;;;;;78.40;41.00;;;;;;;13.27;53.95;100412.91;108115;1254;73083;-66
2024/02/21 10:15:25;;;;;;;73.10;39.10;;;;;;;13.34;53.82;100410.17;108013;1258;75055;-68
2024/02/21 10:18:00;;;;;;;66.10;36.10;;;;;;;13.37;54.06;100409.51;107963;1254;60497;-67
2024/02/21 10:20:28;;;;;;;71.00;39.90;;;;;;;13.37;53.69;100409.30;108030;1254;60324;-68
2024/02/21 10:23:09;;;;;;;73.80;38.30;;;;;;;13.26;53.80;100407.12;108082;1254;73958;-67
2024/02/21 10:25:45;;;;;;;66.70;37.00;;;;;;;13.19;54.14;100409.03;108039;1253;69722;-67
2024/02/21 10:28:14;;;;;;;85.30;41.50;;;;;;;13.04;54.67;100409.50;108089;1254;73126;-67
2024/02/21 10:30:52;;;;;;;108.60;51.20;;;;;;;12.84;55.22;100406.80;108066;1254;60922;-67
2024/02/21 10:33:20;;;;;;;107.40;46.60;;;;;;;12.88;55.23;100404.34;108121;1251;60270;-67
2024/02/21 10:35:49;;;;;;;142.80;58.20;;;;;;;13.00;54.98;100401.36;108282;1250;74882;-66
2024/02/21 10:38:17;;;;;;;101.80;47.20;;;;;;;12.93;55.24;100399.17;108194;1251;71306;-66
2024/02/21 10:40:44;;;;;;;95.10;44.80;;;;;;;12.95;55.16;100401.06;108225;1251;72081;-67
2024/02/21 10:43:12;;;;;;;80.70;40.30;;;;;;;13.03;54.76;100400.34;108196;1251;60918;-67
2024/02/21 10:45:40;;;;;;;72.40;37.70;;;;;;;12.82;55.38;100397.55;108256;1254;60549;-67
2024/02/21 10:48:13;;;;;;;72.70;39.30;;;;;;;12.92;54.97;100396.42;108108;1251;73082;-66
2024/02/21 10:50:47;;;;;;;70.20;38.60;;;;;;;12.95;55.20;100396.82;108236;1251;70143;-67
2024/02/21 10:53:25;;;;;;;70.00;38.10;;;;;;;13.09;55.10;100393.20;108157;1252;73596;-67
2024/02/21 10:55:58;;;;;;;68.60;38.60;;;;;;;13.10;55.02;100391.23;108147;1251;62978;-67
2024/02/21 10:58:27;;;;;;;62.40;36.90;;;;;;;13.18;55.02;100386.65;108071;1251;62360;-70
2024/02/21 11:00:55;;;;;;;57.40;31.20;;;;;;;13.10;55.02;100382.92;108228;1251;72487;-67
2024/02/21 11:03:23;;;;;;;66.00;37.50;;;;;;;13.07;55.30;100383.77;108211;1253;69569;-67
2024/02/21 11:05:51;;;;;;;61.30;34.00;;;;;;;13.01;55.71;100383.88;108186;1256;72991;-67
2024/02/21 11:08:19;;;;;;;72.60;38.40;;;;;;;13.17;54.92;100384.05;108242;1251;61420;-68
2024/02/21 11:10:46;;;;;;;68.00;35.80;;;;;;;13.16;54.84;100383.59;108092;1251;60360;-67